createdAt,value
2018-09-21T00:00:17.701Z,18.00
2018-09-21T00:02:45.329Z,19.07
2018-09-21T00:05:12.960Z,17.40
2018-09-21T00:07:40.601Z,17.27
2018-09-21T00:10:08.213Z,18.70
2018-09-21T00:12:35.856Z,17.30
2018-09-21T00:15:03.466Z,17.50
2018-09-21T00:17:31.066Z,18.27
2018-09-21T00:19:58.747Z,18.83
2018-09-21T00:22:26.362Z,18.33
2018-09-21T00:24:54.000Z,18.10
2018-09-21T00:27:21.641Z,18.80
2018-09-21T00:29:49.263Z,19.43
2018-09-21T00:32:16.861Z,19.80
2018-09-21T00:34:44.468Z,18.77
2018-09-21T00:37:12.078Z,20.47
2018-09-21T00:39:39.684Z,19.47
2018-09-21T00:42:07.300Z,19.37
2018-09-21T00:44:34.922Z,18.00
2018-09-21T00:47:02.529Z,16.47
2018-09-21T00:49:30.224Z,18.53
2018-09-21T00:51:57.835Z,18.50
2018-09-21T00:54:25.450Z,19.40
2018-09-21T00:56:53.059Z,18.43
2018-09-21T00:59:20.661Z,18.20
2018-09-21T01:01:48.264Z,17.23
2018-09-21T01:04:15.902Z,19.07
2018-09-21T01:06:43.507Z,17.63
2018-09-21T01:09:12.149Z,18.03
2018-09-21T01:11:40.042Z,17.50
2018-09-21T01:14:07.860Z,18.53
2018-09-21T01:16:35.473Z,18.27
2018-09-21T01:19:03.524Z,18.50
2018-09-21T01:21:31.166Z,19.03
2018-09-21T01:23:58.843Z,19.33
2018-09-21T01:26:26.470Z,18.87
2018-09-21T01:28:54.186Z,18.47
2018-09-21T01:31:21.879Z,16.60
2018-09-21T01:33:49.477Z,16.40
2018-09-21T01:36:17.081Z,17.17
2018-09-21T01:38:44.656Z,17.73
2018-09-21T01:41:12.233Z,18.17
2018-09-21T01:43:39.819Z,19.93
2018-09-21T01:46:07.485Z,18.60
2018-09-21T01:48:35.074Z,20.13
2018-09-21T01:51:02.678Z,17.13
2018-09-21T01:53:30.264Z,18.93
2018-09-21T01:55:57.839Z,19.10
2018-09-21T01:58:25.450Z,19.20
2018-09-21T02:00:53.065Z,18.60
2018-09-21T02:03:20.650Z,18.63
2018-09-21T02:05:48.260Z,18.20
2018-09-21T02:08:15.866Z,19.03
2018-09-21T02:10:43.492Z,20.57
2018-09-21T02:13:11.123Z,19.17
2018-09-21T02:15:38.731Z,18.63
2018-09-21T02:18:06.324Z,20.83
2018-09-21T02:20:33.960Z,19.90
2018-09-21T02:23:01.552Z,19.83
2018-09-21T02:25:29.162Z,19.23
2018-09-21T02:27:56.761Z,16.70
2018-09-21T02:30:24.362Z,18.10
2018-09-21T02:32:51.946Z,18.30
2018-09-21T02:35:19.564Z,19.23
2018-09-21T02:37:47.155Z,18.00
2018-09-21T02:40:14.828Z,17.93
2018-09-21T02:42:42.430Z,18.93
2018-09-21T02:45:10.027Z,17.53
2018-09-21T02:47:37.630Z,19.70
2018-09-21T02:50:05.286Z,19.03
2018-09-21T02:52:32.963Z,20.80
2018-09-21T02:55:00.613Z,18.80
2018-09-21T02:57:28.245Z,19.57
2018-09-21T02:59:55.839Z,21.10
2018-09-21T03:02:23.475Z,19.73
2018-09-21T03:04:54.887Z,19.67
2018-09-21T03:07:23.214Z,21.57
2018-09-21T03:09:50.814Z,21.27
2018-09-21T03:12:18.449Z,19.07
2018-09-21T03:14:46.042Z,20.03
2018-09-21T03:17:13.921Z,22.90
2018-09-21T03:19:41.573Z,19.57
2018-09-21T03:22:09.434Z,22.70
2018-09-21T03:24:37.020Z,19.40
2018-09-21T03:27:04.674Z,19.20
2018-09-21T03:29:32.281Z,16.67
2018-09-21T03:31:59.959Z,15.80
2018-09-21T03:34:27.793Z,18.53
2018-09-21T03:36:55.410Z,18.77
2018-09-21T03:39:23.107Z,17.90
2018-09-21T03:41:50.714Z,19.33
2018-09-21T03:44:18.735Z,18.80
2018-09-21T03:46:46.392Z,18.70
2018-09-21T03:49:14.165Z,20.37
2018-09-21T03:51:41.859Z,19.87
2018-09-21T03:54:09.459Z,20.33
2018-09-21T03:56:37.678Z,19.50
2018-09-21T03:59:05.290Z,20.63
2018-09-21T04:01:33.014Z,21.27
2018-09-21T04:04:00.600Z,21.70
2018-09-21T04:06:28.223Z,18.30
2018-09-21T04:08:55.895Z,19.17
2018-09-21T04:11:23.616Z,18.17
2018-09-21T04:13:51.231Z,19.47
2018-09-21T04:16:18.846Z,19.83
2018-09-21T04:18:46.452Z,20.00
2018-09-21T04:21:14.058Z,18.37
2018-09-21T04:23:41.652Z,21.03
2018-09-21T04:26:09.280Z,19.47
2018-09-21T04:28:36.886Z,20.07
2018-09-21T04:31:04.530Z,19.73
2018-09-21T04:33:32.164Z,20.33
2018-09-21T04:35:59.761Z,23.07
2018-09-21T04:38:27.449Z,15.30
2018-09-21T04:40:55.052Z,16.87
2018-09-21T04:43:22.776Z,23.50
2018-09-21T04:45:50.513Z,19.80
2018-09-21T04:48:18.120Z,19.97
2018-09-21T04:50:45.717Z,19.43
2018-09-21T04:53:13.332Z,20.53
2018-09-21T04:55:40.980Z,19.00
2018-09-21T04:58:08.584Z,21.10
2018-09-21T05:00:36.244Z,19.13
2018-09-21T05:03:03.850Z,23.17
2018-09-21T05:05:31.528Z,22.67
2018-09-21T05:07:59.133Z,27.23
2018-09-21T05:10:26.777Z,20.67
2018-09-21T05:12:54.378Z,20.57
2018-09-21T05:15:21.993Z,24.40
2018-09-21T05:17:49.585Z,21.03
2018-09-21T05:20:17.195Z,20.07
2018-09-21T05:22:44.810Z,19.70
2018-09-21T05:25:12.398Z,18.93
2018-09-21T05:27:40.037Z,19.67
2018-09-21T05:30:07.611Z,22.60
2018-09-21T05:32:35.201Z,20.63
2018-09-21T05:35:02.942Z,21.30
2018-09-21T05:37:30.623Z,21.83
2018-09-21T05:39:58.233Z,20.63
2018-09-21T05:42:25.829Z,21.10
2018-09-21T05:44:53.385Z,23.80
2018-09-21T05:47:20.960Z,21.00
2018-09-21T05:49:48.544Z,21.40
2018-09-21T05:52:16.116Z,20.83
2018-09-21T05:54:43.688Z,21.03
2018-09-21T05:57:11.288Z,21.93
2018-09-21T05:59:38.883Z,24.90
2018-09-21T06:02:06.501Z,25.47
2018-09-21T06:04:34.096Z,23.07
2018-09-21T06:07:01.694Z,22.67
2018-09-21T06:09:29.328Z,22.87
2018-09-21T06:11:56.920Z,23.80
2018-09-21T06:14:24.502Z,24.10
2018-09-21T06:16:52.076Z,27.77
2018-09-21T06:19:19.651Z,24.90
2018-09-21T06:21:47.241Z,24.80
2018-09-21T06:24:14.825Z,24.40
2018-09-21T06:26:42.398Z,23.37
2018-09-21T06:29:09.959Z,24.50
2018-09-21T06:31:37.540Z,25.10
2018-09-21T06:34:05.136Z,24.37
2018-09-21T06:36:32.736Z,25.27
2018-09-21T06:39:00.348Z,25.00
2018-09-21T06:41:27.921Z,25.90
2018-09-21T06:43:55.568Z,24.90
2018-09-21T06:46:23.174Z,33.87
2018-09-21T06:48:50.768Z,24.80
2018-09-21T06:51:18.357Z,26.30
2018-09-21T06:53:45.931Z,25.00
2018-09-21T06:56:13.520Z,25.73
2018-09-21T06:58:41.425Z,24.93
2018-09-21T07:01:08.973Z,24.37
2018-09-21T07:03:36.559Z,24.23
2018-09-21T07:06:04.137Z,25.43
2018-09-21T07:08:31.745Z,26.13
2018-09-21T07:10:59.315Z,24.23
2018-09-21T07:13:26.879Z,26.60
2018-09-21T07:15:54.563Z,31.27
2018-09-21T07:18:22.132Z,25.50
2018-09-21T07:20:49.727Z,28.53
2018-09-21T07:23:17.296Z,25.83
2018-09-21T07:25:44.907Z,26.53
2018-09-21T07:28:12.524Z,23.77
2018-09-21T07:30:40.124Z,25.37
2018-09-21T07:33:07.849Z,25.70
2018-09-21T07:35:35.453Z,25.83
2018-09-21T07:38:03.043Z,23.97
2018-09-21T07:40:30.742Z,43.57
2018-09-21T07:42:58.396Z,27.30
2018-09-21T07:45:26.003Z,26.90
2018-09-21T07:47:53.629Z,25.97
2018-09-21T07:50:21.243Z,26.97
2018-09-21T07:52:48.892Z,24.90
2018-09-21T07:55:16.501Z,24.60
2018-09-21T07:57:44.106Z,23.40
2018-09-21T08:00:11.721Z,26.57
2018-09-21T08:02:39.332Z,26.10
2018-09-21T08:05:07.264Z,24.20
2018-09-21T08:07:34.851Z,22.13
2018-09-21T08:10:02.535Z,30.80
2018-09-21T08:12:30.169Z,23.30
2018-09-21T08:14:57.774Z,24.23
2018-09-21T08:17:25.432Z,20.23
2018-09-21T08:19:53.225Z,25.37
2018-09-21T08:22:20.925Z,23.53
2018-09-21T08:24:49.660Z,28.33
2018-09-21T08:27:18.939Z,29.57
2018-09-21T08:29:47.128Z,31.93
2018-09-21T08:32:15.054Z,20.90
2018-09-21T08:34:42.953Z,21.83
2018-09-21T08:37:10.833Z,23.03
2018-09-21T08:39:38.430Z,23.33
2018-09-21T08:42:06.119Z,20.53
2018-09-21T08:44:33.751Z,24.10
2018-09-21T08:47:01.365Z,20.50
2018-09-21T08:49:28.972Z,20.23
2018-09-21T08:51:56.593Z,31.20
2018-09-21T08:54:24.200Z,26.40
2018-09-21T08:56:51.802Z,21.33
2018-09-21T08:59:19.413Z,23.10
2018-09-21T09:01:47.062Z,21.60
2018-09-21T09:04:14.669Z,20.50
2018-09-21T09:06:42.278Z,26.37
2018-09-21T09:09:10.594Z,22.60
2018-09-21T09:11:38.579Z,23.03
2018-09-21T09:14:06.369Z,21.60
2018-09-21T09:16:33.974Z,20.80
2018-09-21T09:19:01.566Z,27.87
2018-09-21T09:21:29.156Z,20.90
2018-09-21T09:23:56.759Z,19.97
2018-09-21T09:26:24.376Z,22.73
2018-09-21T09:28:52.011Z,20.33
2018-09-21T09:31:19.701Z,20.87
2018-09-21T09:33:47.408Z,21.87
2018-09-21T09:36:15.016Z,21.13
2018-09-21T09:38:42.601Z,20.27
2018-09-21T09:41:10.221Z,24.13
2018-09-21T09:43:37.796Z,22.80
2018-09-21T09:46:05.396Z,21.80
2018-09-21T09:48:33.089Z,20.40
2018-09-21T09:51:00.589Z,21.10
2018-09-21T09:53:28.185Z,25.13
2018-09-21T09:55:55.778Z,22.70
2018-09-21T09:58:23.465Z,21.30
2018-09-21T10:00:53.012Z,22.40
2018-09-21T10:03:20.996Z,22.87
2018-09-21T10:05:48.643Z,19.70
2018-09-21T10:08:16.245Z,20.73
2018-09-21T10:10:43.851Z,20.80
2018-09-21T10:13:11.735Z,19.87
2018-09-21T10:15:39.540Z,18.73
2018-09-21T10:18:07.188Z,18.63
2018-09-21T10:20:34.840Z,18.00
2018-09-21T10:23:02.711Z,19.47
2018-09-21T10:25:30.834Z,18.67
2018-09-21T10:27:58.616Z,16.37
2018-09-21T10:30:26.094Z,17.47
2018-09-21T10:32:53.676Z,17.07
2018-09-21T10:35:21.325Z,18.43
2018-09-21T10:37:48.918Z,16.50
2018-09-21T10:40:16.871Z,18.20
2018-09-21T10:42:44.614Z,17.30
2018-09-21T10:45:12.130Z,15.80
2018-09-21T10:47:39.718Z,17.00
2018-09-21T10:50:07.816Z,23.43
2018-09-21T10:52:35.456Z,17.17
2018-09-21T10:55:03.029Z,16.63
2018-09-21T10:57:30.882Z,16.03
2018-09-21T11:00:25.078Z,17.00
2018-09-21T11:02:52.712Z,22.00
2018-09-21T11:05:20.299Z,15.97
2018-09-21T11:07:47.889Z,16.23
2018-09-21T11:10:15.489Z,18.00
2018-09-21T11:12:43.083Z,14.63
2018-09-21T11:15:10.714Z,16.60
2018-09-21T11:17:38.305Z,16.23
2018-09-21T11:20:05.932Z,15.90
2018-09-21T11:22:33.534Z,15.73
2018-09-21T11:25:01.130Z,16.30
2018-09-21T11:27:28.729Z,17.03
2018-09-21T11:29:56.300Z,16.67
2018-09-21T11:32:23.884Z,15.30
2018-09-21T11:34:51.529Z,16.87
2018-09-21T11:37:19.108Z,16.63
2018-09-21T11:39:46.695Z,16.27
2018-09-21T11:42:14.279Z,17.17
2018-09-21T11:44:41.843Z,15.07
2018-09-21T11:47:09.501Z,15.50
2018-09-21T11:49:37.047Z,15.23
2018-09-21T11:52:04.658Z,15.70
2018-09-21T11:54:32.266Z,16.60
2018-09-21T11:56:59.885Z,16.60
2018-09-21T11:59:27.482Z,14.80
2018-09-21T12:01:55.111Z,16.77
2018-09-21T12:04:22.708Z,16.10
2018-09-21T12:06:50.312Z,15.40
2018-09-21T12:09:17.895Z,16.77
2018-09-21T12:11:45.502Z,16.10
2018-09-21T12:14:13.122Z,15.33
2018-09-21T12:16:40.717Z,14.33
2018-09-21T12:19:08.299Z,14.67
2018-09-21T12:21:35.902Z,18.70
2018-09-21T12:24:03.481Z,15.83
2018-09-21T12:26:31.056Z,14.10
2018-09-21T12:28:58.660Z,14.30
2018-09-21T12:31:26.294Z,14.50
2018-09-21T12:33:53.905Z,15.20
2018-09-21T12:36:21.518Z,13.27
2018-09-21T12:38:49.141Z,13.50
2018-09-21T12:41:16.730Z,14.93
2018-09-21T12:43:44.299Z,16.03
2018-09-21T12:46:13.773Z,15.20
2018-09-21T12:48:41.448Z,16.27
2018-09-21T12:51:09.063Z,14.63
2018-09-21T12:53:36.668Z,14.73
2018-09-21T12:56:04.296Z,14.43
2018-09-21T12:58:32.074Z,14.80
2018-09-21T13:00:59.573Z,13.50
2018-09-21T13:03:27.164Z,13.83
2018-09-21T13:05:55.843Z,13.07
2018-09-21T13:08:24.620Z,16.03
2018-09-21T13:10:52.309Z,13.77
2018-09-21T13:13:20.014Z,14.43
2018-09-21T13:15:47.639Z,13.77
2018-09-21T13:18:15.353Z,13.80
2018-09-21T13:20:43.226Z,14.40
2018-09-21T13:23:10.974Z,14.10
2018-09-21T13:25:38.642Z,16.63
2018-09-21T13:28:06.200Z,13.13
2018-09-21T13:30:33.796Z,13.03
2018-09-21T13:33:01.555Z,13.90
2018-09-21T13:35:29.133Z,12.13
2018-09-21T13:37:56.741Z,14.77
2018-09-21T13:40:24.333Z,13.07
2018-09-21T13:42:51.921Z,13.73
2018-09-21T13:45:20.000Z,13.33
2018-09-21T13:47:47.580Z,14.80
2018-09-21T13:50:15.180Z,12.83
2018-09-21T13:52:42.797Z,13.10
2018-09-21T13:55:10.393Z,12.97
2018-09-21T13:57:38.005Z,12.17
2018-09-21T14:00:05.693Z,12.33
2018-09-21T14:02:33.276Z,13.77
2018-09-21T14:05:00.907Z,13.60
2018-09-21T14:07:28.491Z,14.27
2018-09-21T14:09:56.073Z,12.70
2018-09-21T14:12:23.662Z,12.47
2018-09-21T14:14:51.313Z,15.73
2018-09-21T14:17:18.915Z,12.97
2018-09-21T14:19:46.528Z,13.47
2018-09-21T14:22:14.146Z,12.87
2018-09-21T14:24:41.752Z,14.30
2018-09-21T14:27:09.470Z,16.20
2018-09-21T14:29:37.056Z,14.00
2018-09-21T14:32:04.624Z,13.53
2018-09-21T14:34:32.207Z,12.80
2018-09-21T14:36:59.791Z,12.50
2018-09-21T14:39:27.411Z,12.23
2018-09-21T14:41:55.005Z,13.57
2018-09-21T14:44:22.561Z,12.97
2018-09-21T14:46:50.129Z,13.53
2018-09-21T14:49:17.706Z,13.27
2018-09-21T14:51:45.302Z,13.57
2018-09-21T14:54:12.922Z,13.67
2018-09-21T14:56:40.523Z,13.53
2018-09-21T14:59:08.117Z,13.57
2018-09-21T15:01:35.731Z,14.33
2018-09-21T15:04:03.371Z,13.50
2018-09-21T15:06:31.083Z,13.63
2018-09-21T15:08:58.709Z,16.03
2018-09-21T15:11:26.368Z,13.73
2018-09-21T15:13:54.043Z,12.33
2018-09-21T15:16:21.785Z,16.80
2018-09-21T15:18:49.385Z,13.77
2018-09-21T15:21:16.970Z,13.13
2018-09-21T15:23:44.567Z,18.00
2018-09-21T15:26:12.202Z,13.80
2018-09-21T15:28:39.829Z,12.60
2018-09-21T15:31:07.663Z,13.13
2018-09-21T15:33:35.315Z,13.77
2018-09-21T15:36:03.013Z,14.53
2018-09-21T15:38:30.586Z,14.73
2018-09-21T15:40:58.221Z,14.27
2018-09-21T15:43:25.849Z,16.10
2018-09-21T15:45:53.430Z,17.00
2018-09-21T15:48:21.061Z,16.20
2018-09-21T15:50:48.746Z,15.67
2018-09-21T15:53:17.276Z,14.77
2018-09-21T15:55:45.129Z,15.43
2018-09-21T15:58:12.842Z,15.77
2018-09-21T16:00:40.440Z,16.27
2018-09-21T16:03:08.057Z,15.30
2018-09-21T16:05:35.724Z,17.20
2018-09-21T16:08:03.368Z,15.47
2018-09-21T16:10:30.980Z,15.43
2018-09-21T16:12:58.576Z,16.00
2018-09-21T16:15:26.160Z,16.07
2018-09-21T16:17:53.850Z,20.07
2018-09-21T16:20:21.473Z,18.87
2018-09-21T16:22:49.073Z,17.03
2018-09-21T16:25:16.662Z,17.03
2018-09-21T16:27:44.270Z,18.73
2018-09-21T16:30:11.902Z,18.63
2018-09-21T16:32:39.562Z,18.00
2018-09-21T16:35:07.372Z,17.77
2018-09-21T16:37:34.974Z,16.60
2018-09-21T16:40:02.659Z,17.43
2018-09-21T16:42:30.572Z,16.60
2018-09-21T16:44:58.191Z,18.20
2018-09-21T16:47:25.847Z,16.60
2018-09-21T16:49:53.602Z,16.70
2018-09-21T16:52:22.786Z,16.80
2018-09-21T16:54:50.993Z,20.50
2018-09-21T16:57:18.661Z,19.03
2018-09-21T16:59:46.277Z,17.83
2018-09-21T17:02:15.018Z,17.83
2018-09-21T17:04:42.741Z,17.07
2018-09-21T17:07:14.386Z,16.90
2018-09-21T17:09:42.044Z,18.10
2018-09-21T17:12:09.731Z,16.80
2018-09-21T17:14:37.345Z,16.93
2018-09-21T17:17:04.971Z,19.43
2018-09-21T17:19:32.822Z,20.80
2018-09-21T17:22:00.799Z,18.57
2018-09-21T17:24:28.422Z,19.67
2018-09-21T17:26:56.026Z,18.53
2018-09-21T17:29:23.631Z,19.33
2018-09-21T17:31:51.251Z,18.90
2018-09-21T17:34:18.857Z,18.10
2018-09-21T17:36:46.483Z,19.70
2018-09-21T17:39:14.172Z,19.37
2018-09-21T17:41:42.068Z,20.27
2018-09-21T17:44:09.967Z,19.53
2018-09-21T17:46:37.560Z,20.50
2018-09-21T17:49:05.315Z,20.60
2018-09-21T17:51:32.953Z,18.80
2018-09-21T17:54:00.733Z,21.30
2018-09-21T17:56:28.387Z,20.10
2018-09-21T17:58:56.102Z,20.73
2018-09-21T18:01:24.067Z,22.70
2018-09-21T18:03:51.730Z,20.70
2018-09-21T18:06:19.492Z,22.43
2018-09-21T18:08:47.195Z,20.80
2018-09-21T18:11:14.822Z,20.67
2018-09-21T18:13:42.444Z,20.03
2018-09-21T18:16:10.467Z,20.27
2018-09-21T18:18:38.020Z,19.57
2018-09-21T18:21:05.746Z,22.30
2018-09-21T18:23:33.391Z,22.90
2018-09-21T18:26:02.425Z,24.40
2018-09-21T18:28:30.620Z,20.73
2018-09-21T18:30:58.316Z,20.77
2018-09-21T18:33:26.033Z,22.00
2018-09-21T18:35:53.738Z,22.37
2018-09-21T18:38:21.587Z,20.40
2018-09-21T18:40:49.278Z,21.47
2018-09-21T18:43:16.876Z,23.00
2018-09-21T18:45:44.585Z,23.30
2018-09-21T18:48:12.319Z,23.07
2018-09-21T18:50:40.085Z,22.17
2018-09-21T18:53:07.736Z,21.23
2018-09-21T18:55:35.370Z,20.47
2018-09-21T18:58:03.414Z,21.40
2018-09-21T19:00:31.428Z,21.47
2018-09-21T19:02:59.272Z,22.20
2018-09-21T19:05:27.275Z,22.17
2018-09-21T19:07:55.051Z,23.20
2018-09-21T19:10:22.990Z,21.97
2018-09-21T19:12:50.803Z,24.77
2018-09-21T19:15:18.927Z,23.00
2018-09-21T19:17:46.786Z,23.37
2018-09-21T19:20:14.676Z,24.10
2018-09-21T19:22:42.633Z,23.40
2018-09-21T19:25:10.551Z,23.03
2018-09-21T19:27:38.520Z,24.50
2018-09-21T19:30:06.454Z,24.37
2018-09-21T19:32:34.423Z,24.43
2018-09-21T19:35:02.303Z,24.40
2018-09-21T19:37:29.979Z,22.83
2018-09-21T19:39:57.870Z,24.40
2018-09-21T19:42:25.658Z,22.33
2018-09-21T19:44:53.587Z,22.23
2018-09-21T19:47:21.149Z,25.70
2018-09-21T19:49:49.002Z,23.03
2018-09-21T19:52:16.618Z,23.30
2018-09-21T19:54:44.560Z,22.70
2018-09-21T19:57:12.187Z,24.53
2018-09-21T19:59:40.006Z,22.93
2018-09-21T20:02:07.647Z,23.60
2018-09-21T20:04:35.345Z,23.33
2018-09-21T20:07:03.002Z,24.63
2018-09-21T20:09:30.909Z,23.37
2018-09-21T20:11:58.518Z,23.07
2018-09-21T20:14:26.155Z,21.60
2018-09-21T20:16:53.778Z,23.90
2018-09-21T20:19:21.390Z,23.80
2018-09-21T20:21:49.019Z,22.97
2018-09-21T20:24:16.627Z,23.57
2018-09-21T20:26:44.388Z,24.03
2018-09-21T20:29:12.123Z,22.27
2018-09-21T20:31:45.140Z,22.53
2018-09-21T20:34:12.756Z,22.53
2018-09-21T20:36:40.368Z,23.13
2018-09-21T20:39:08.635Z,23.97
2018-09-21T20:41:36.288Z,23.33
2018-09-21T20:44:03.948Z,24.57
2018-09-21T20:46:31.594Z,23.43
2018-09-21T20:48:59.225Z,24.40
2018-09-21T20:51:26.870Z,24.77
2018-09-21T20:53:54.490Z,23.43
2018-09-21T20:56:22.120Z,21.60
2018-09-21T20:58:49.752Z,24.07
2018-09-21T21:01:17.413Z,25.07
2018-09-21T21:03:45.040Z,24.27
2018-09-21T21:06:12.653Z,24.33
2018-09-21T21:08:40.336Z,23.13
2018-09-21T21:11:07.953Z,24.57
2018-09-21T21:13:35.548Z,24.17
2018-09-21T21:16:03.215Z,24.20
2018-09-21T21:18:30.873Z,24.57
2018-09-21T21:20:58.785Z,26.40
2018-09-21T21:23:47.095Z,24.97
2018-09-21T21:26:14.742Z,25.50
2018-09-21T21:28:42.351Z,24.53
2018-09-21T21:31:09.972Z,26.47
2018-09-21T21:33:37.617Z,25.50
2018-09-21T21:36:05.607Z,24.33
2018-09-21T21:38:33.253Z,24.10
2018-09-21T21:41:01.264Z,25.67
2018-09-21T21:43:28.847Z,25.43
2018-09-21T21:45:56.470Z,24.10
2018-09-21T21:48:24.074Z,25.03
2018-09-21T21:50:51.695Z,25.27
2018-09-21T21:53:19.310Z,24.50
2018-09-21T21:55:46.976Z,25.93
2018-09-21T21:58:14.625Z,25.47
2018-09-21T22:00:48.645Z,24.17
2018-09-21T22:03:16.265Z,24.93
2018-09-21T22:05:43.961Z,26.50
2018-09-21T22:08:11.582Z,24.53
2018-09-21T22:10:39.220Z,26.20
2018-09-21T22:13:12.053Z,24.27
2018-09-21T22:15:39.691Z,24.53
2018-09-21T22:18:07.348Z,25.50
2018-09-21T22:20:34.998Z,24.47
2018-09-21T22:23:02.604Z,25.30
2018-09-21T22:25:30.216Z,25.50
2018-09-21T22:27:57.838Z,24.60
2018-09-21T22:30:25.439Z,24.40
2018-09-21T22:32:53.096Z,22.67
2018-09-21T22:35:20.707Z,24.30
2018-09-21T22:37:48.333Z,25.33
2018-09-21T22:40:15.942Z,23.83
2018-09-21T22:42:43.552Z,25.53
2018-09-21T22:45:11.164Z,27.30
2018-09-21T22:47:38.801Z,27.33
2018-09-21T22:50:06.457Z,26.23
2018-09-21T22:52:34.057Z,24.70
2018-09-21T22:55:01.689Z,26.80
2018-09-21T22:57:29.283Z,24.13
2018-09-21T22:59:56.892Z,26.00
2018-09-21T23:02:24.503Z,25.40
2018-09-21T23:04:52.112Z,25.10
2018-09-21T23:07:19.724Z,27.30
2018-09-21T23:09:47.321Z,27.80
2018-09-21T23:12:14.967Z,25.53
2018-09-21T23:14:42.560Z,25.50
2018-09-21T23:17:10.158Z,25.07
2018-09-21T23:19:37.785Z,25.17
2018-09-21T23:22:05.387Z,27.67
2018-09-21T23:24:32.998Z,26.00
2018-09-21T23:27:00.630Z,27.13
2018-09-21T23:29:28.240Z,25.80
2018-09-21T23:31:55.839Z,26.17
2018-09-21T23:34:23.508Z,25.43
2018-09-21T23:36:51.161Z,26.30
2018-09-21T23:39:18.786Z,26.07
2018-09-21T23:41:46.383Z,26.03
2018-09-21T23:44:13.994Z,25.57
2018-09-21T23:46:41.609Z,27.50
2018-09-21T23:49:09.257Z,25.00
2018-09-21T23:51:36.862Z,26.13
2018-09-21T23:54:04.437Z,25.57
2018-09-21T23:56:32.042Z,25.57
2018-09-21T23:58:59.695Z,26.20
